createdAt,value
2022-10-28T00:00:47.551Z,1.75
2022-10-28T00:03:14.105Z,1.08
2022-10-28T00:05:40.653Z,0.70
2022-10-28T00:08:07.231Z,1.30
2022-10-28T00:10:33.813Z,0.88
2022-10-28T00:13:00.415Z,1.42
2022-10-28T00:15:27.049Z,0.90
2022-10-28T00:17:53.814Z,1.50
2022-10-28T00:20:20.565Z,1.13
2022-10-28T00:22:47.108Z,1.33
2022-10-28T00:25:13.650Z,0.77
2022-10-28T00:27:40.204Z,0.90
2022-10-28T00:30:07.264Z,1.58
2022-10-28T00:32:33.782Z,1.83
2022-10-28T00:35:00.312Z,0.80
2022-10-28T00:37:26.889Z,1.45
2022-10-28T00:39:53.497Z,1.73
2022-10-28T00:42:22.274Z,1.45
2022-10-28T00:45:01.907Z,1.55
2022-10-28T00:47:51.790Z,1.10
2022-10-28T00:50:38.018Z,1.77
2022-10-28T00:53:30.637Z,1.45
2022-10-28T00:55:59.383Z,1.63
2022-10-28T00:58:26.584Z,0.98
2022-10-28T01:00:54.029Z,1.38
2022-10-28T01:03:20.989Z,0.93
2022-10-28T01:05:48.695Z,1.05
2022-10-28T01:08:15.796Z,1.05
2022-10-28T01:11:10.157Z,1.00
2022-10-28T01:13:55.214Z,1.20
2022-10-28T01:17:02.569Z,1.67
2022-10-28T01:19:35.105Z,1.00
2022-10-28T01:22:07.492Z,1.27
2022-10-28T01:24:55.285Z,0.95
2022-10-28T01:28:00.004Z,1.10
2022-10-28T01:30:39.305Z,1.35
2022-10-28T01:33:11.282Z,3.15
2022-10-28T01:35:54.586Z,1.48
2022-10-28T01:38:27.899Z,0.85
2022-10-28T01:40:59.174Z,0.70
2022-10-28T01:43:29.965Z,1.42
2022-10-28T01:46:08.565Z,1.13
2022-10-28T01:48:41.640Z,1.23
2022-10-28T01:51:12.996Z,1.85
2022-10-28T01:53:43.439Z,1.50
2022-10-28T01:56:15.500Z,1.92
2022-10-28T01:58:43.093Z,0.60
2022-10-28T02:01:10.452Z,1.52
2022-10-28T02:03:37.227Z,1.00
2022-10-28T02:06:06.496Z,0.95
2022-10-28T02:08:42.120Z,0.82
2022-10-28T02:11:26.688Z,0.60
2022-10-28T02:14:14.320Z,1.08
2022-10-28T02:16:43.618Z,1.88
2022-10-28T02:19:38.513Z,0.90
2022-10-28T02:22:16.322Z,1.42
2022-10-28T02:24:57.011Z,0.85
2022-10-28T02:27:38.755Z,1.00
2022-10-28T02:30:08.286Z,0.95
2022-10-28T02:32:41.444Z,0.93
2022-10-28T02:35:17.977Z,1.20
2022-10-28T02:37:46.195Z,1.33
2022-10-28T02:40:17.460Z,0.80
2022-10-28T02:42:53.197Z,1.63
2022-10-28T02:45:23.177Z,1.38
2022-10-28T02:47:59.507Z,0.80
2022-10-28T02:50:35.463Z,1.30
2022-10-28T02:53:04.916Z,0.77
2022-10-28T02:55:36.917Z,1.33
2022-10-28T02:58:03.616Z,1.20
2022-10-28T03:00:30.172Z,0.98
2022-10-28T03:02:56.703Z,1.40
2022-10-28T03:05:23.242Z,0.70
2022-10-28T03:07:49.772Z,1.25
2022-10-28T03:10:16.393Z,1.17
2022-10-28T03:12:42.924Z,0.93
2022-10-28T03:15:09.851Z,0.80
2022-10-28T03:17:36.398Z,1.25
2022-10-28T03:20:03.024Z,0.98
2022-10-28T03:22:29.641Z,1.00
2022-10-28T03:24:56.224Z,0.90
2022-10-28T03:27:22.756Z,1.17
2022-10-28T03:29:49.280Z,1.35
2022-10-28T03:32:15.848Z,1.02
2022-10-28T03:34:42.465Z,0.82
2022-10-28T03:37:09.040Z,0.98
2022-10-28T03:39:35.608Z,0.90
2022-10-28T03:42:02.150Z,2.15
2022-10-28T03:44:28.706Z,1.25
2022-10-28T03:46:55.227Z,1.10
2022-10-28T03:49:21.805Z,1.02
2022-10-28T03:51:48.956Z,0.80
2022-10-28T03:54:15.562Z,0.88
2022-10-28T03:56:42.139Z,1.20
2022-10-28T03:59:09.844Z,0.90
2022-10-28T04:01:36.540Z,0.82
2022-10-28T04:04:03.308Z,1.17
2022-10-28T04:06:30.180Z,0.95
2022-10-28T04:08:56.721Z,1.67
2022-10-28T04:11:23.249Z,1.42
2022-10-28T04:13:49.828Z,0.90
2022-10-28T04:16:16.348Z,0.80
2022-10-28T04:18:42.912Z,1.20
2022-10-28T04:21:09.431Z,0.88
2022-10-28T04:23:35.965Z,1.73
2022-10-28T04:26:02.565Z,1.13
2022-10-28T04:28:29.455Z,1.20
2022-10-28T04:30:55.989Z,0.90
2022-10-28T04:33:22.576Z,1.40
2022-10-28T04:35:49.100Z,1.13
2022-10-28T04:38:15.695Z,0.75
2022-10-28T04:40:42.323Z,1.02
2022-10-28T04:43:10.188Z,1.15
2022-10-28T04:45:37.710Z,1.30
2022-10-28T04:48:04.455Z,1.33
2022-10-28T04:50:31.038Z,1.05
2022-10-28T04:52:57.615Z,1.13
2022-10-28T04:55:24.156Z,0.90
2022-10-28T04:57:54.445Z,0.98
2022-10-28T05:00:21.428Z,0.75
2022-10-28T05:02:47.999Z,1.42
2022-10-28T05:05:14.596Z,1.15
2022-10-28T05:07:41.119Z,0.98
2022-10-28T05:10:08.024Z,1.25
2022-10-28T05:12:34.560Z,1.90
2022-10-28T05:15:01.172Z,0.88
2022-10-28T05:17:27.715Z,1.02
2022-10-28T05:19:54.290Z,1.40
2022-10-28T05:22:20.836Z,1.20
2022-10-28T05:24:47.374Z,0.98
2022-10-28T05:27:13.953Z,1.63
2022-10-28T05:29:40.489Z,2.38
2022-10-28T05:32:07.018Z,1.00
2022-10-28T05:34:33.543Z,0.90
2022-10-28T05:37:00.106Z,1.45
2022-10-28T05:39:26.635Z,1.13
2022-10-28T05:41:53.168Z,1.08
2022-10-28T05:44:19.725Z,1.02
2022-10-28T05:46:46.264Z,1.20
2022-10-28T05:49:12.812Z,0.93
2022-10-28T05:51:39.343Z,1.65
2022-10-28T05:54:05.924Z,1.10
2022-10-28T05:56:32.456Z,1.13
2022-10-28T05:58:59.027Z,1.52
2022-10-28T06:01:25.643Z,0.80
2022-10-28T06:03:52.310Z,1.42
2022-10-28T06:06:18.881Z,1.58
2022-10-28T06:08:45.409Z,1.98
2022-10-28T06:11:10.395Z,1.90
2022-10-28T06:13:36.938Z,1.48
2022-10-28T06:16:03.838Z,1.45
2022-10-28T06:18:30.389Z,1.02
2022-10-28T06:20:57.941Z,1.00
2022-10-28T06:23:25.621Z,0.82
2022-10-28T06:28:24.537Z,1.42
2022-10-28T06:30:51.133Z,0.70
2022-10-28T06:33:17.970Z,1.88
2022-10-28T06:35:44.572Z,0.85
2022-10-28T06:38:11.413Z,1.90
2022-10-28T06:40:37.956Z,1.55
2022-10-28T06:43:05.924Z,1.20
2022-10-28T06:45:33.452Z,2.03
2022-10-28T06:48:03.794Z,1.77
2022-10-28T06:50:32.591Z,1.50
2022-10-28T06:52:59.179Z,1.35
2022-10-28T06:55:26.330Z,1.48
2022-10-28T06:57:53.368Z,1.13
2022-10-28T07:00:20.449Z,1.08
2022-10-28T07:02:52.271Z,1.23
2022-10-28T07:05:18.960Z,1.25
2022-10-28T07:07:45.500Z,1.75
2022-10-28T07:10:12.027Z,1.85
2022-10-28T07:12:38.599Z,2.05
2022-10-28T07:15:05.575Z,1.33
2022-10-28T07:17:32.132Z,1.13
2022-10-28T07:19:58.710Z,1.63
2022-10-28T07:22:25.912Z,1.17
2022-10-28T07:24:52.539Z,2.05
2022-10-28T07:27:19.248Z,2.45
2022-10-28T07:29:45.796Z,1.35
2022-10-28T07:32:12.404Z,1.15
2022-10-28T07:34:38.941Z,1.13
2022-10-28T07:37:06.159Z,1.55
2022-10-28T07:39:32.775Z,2.03
2022-10-28T07:42:01.191Z,1.35
2022-10-28T07:44:28.707Z,2.15
2022-10-28T07:46:57.994Z,1.45
2022-10-28T07:49:24.997Z,1.17
2022-10-28T07:51:51.787Z,2.10
2022-10-28T07:54:18.371Z,2.42
2022-10-28T07:56:44.943Z,1.52
2022-10-28T07:59:11.483Z,2.00
2022-10-28T08:01:38.155Z,4.10
2022-10-28T08:04:04.810Z,1.33
2022-10-28T08:06:31.535Z,2.70
2022-10-28T08:08:58.329Z,2.10
2022-10-28T08:11:24.933Z,1.85
2022-10-28T08:13:52.551Z,2.00
2022-10-28T08:16:19.418Z,2.05
2022-10-28T08:18:46.174Z,1.08
2022-10-28T08:21:13.733Z,2.28
2022-10-28T08:23:41.455Z,2.13
2022-10-28T08:26:08.458Z,2.33
2022-10-28T08:28:35.035Z,1.60
2022-10-28T08:31:08.744Z,2.15
2022-10-28T08:33:36.855Z,1.90
2022-10-28T08:36:03.719Z,2.15
2022-10-28T08:38:30.268Z,2.90
2022-10-28T08:41:14.874Z,2.35
2022-10-28T08:44:12.068Z,2.10
2022-10-28T08:47:13.288Z,2.50
2022-10-28T08:49:43.438Z,2.05
2022-10-28T08:52:18.059Z,1.93
2022-10-28T08:54:52.709Z,2.72
2022-10-28T08:57:38.168Z,2.30
2022-10-28T09:00:09.722Z,2.33
2022-10-28T09:02:51.525Z,2.33
2022-10-28T09:05:22.366Z,2.85
2022-10-28T09:07:49.122Z,1.90
2022-10-28T09:10:16.685Z,1.40
2022-10-28T09:13:04.568Z,2.42
2022-10-28T09:18:19.007Z,3.53
2022-10-28T09:20:56.807Z,2.70
2022-10-28T09:23:28.774Z,2.08
2022-10-28T09:26:10.858Z,1.58
2022-10-28T09:28:56.259Z,2.42
2022-10-28T09:31:28.978Z,2.17
2022-10-28T09:34:14.021Z,2.40
2022-10-28T09:36:43.690Z,1.75
2022-10-28T09:39:26.809Z,2.47
2022-10-28T09:41:55.181Z,3.00
2022-10-28T09:44:49.935Z,2.55
2022-10-28T09:47:23.043Z,2.70
2022-10-28T09:49:52.059Z,3.33
2022-10-28T09:52:22.980Z,2.45
2022-10-28T09:54:52.420Z,1.98
2022-10-28T09:57:19.582Z,2.42
2022-10-28T09:59:46.512Z,1.65
2022-10-28T10:02:30.850Z,2.95
2022-10-28T10:04:58.359Z,2.42
2022-10-28T10:07:30.999Z,2.72
2022-10-28T10:10:00.308Z,1.80
2022-10-28T10:12:27.174Z,2.60
2022-10-28T10:14:56.563Z,2.05
2022-10-28T10:17:27.529Z,2.13
2022-10-28T10:20:07.583Z,1.98
2022-10-28T10:22:44.910Z,2.63
2022-10-28T10:25:22.739Z,2.40
2022-10-28T10:27:55.877Z,2.70
2022-10-28T10:30:25.655Z,2.90
2022-10-28T10:32:52.727Z,2.35
2022-10-28T10:35:28.903Z,2.10
2022-10-28T10:37:57.811Z,2.40
2022-10-28T10:40:49.006Z,2.42
2022-10-28T10:43:18.171Z,2.35
2022-10-28T10:46:05.510Z,2.17
2022-10-28T10:48:36.042Z,2.65
2022-10-28T10:51:07.409Z,3.13
2022-10-28T10:53:34.533Z,2.67
2022-10-28T10:56:06.230Z,3.85
2022-10-28T10:58:35.344Z,2.53
2022-10-28T11:01:04.862Z,1.77
2022-10-28T11:03:40.428Z,2.47
2022-10-28T11:06:24.755Z,3.90
2022-10-28T11:09:02.652Z,3.22
2022-10-28T11:11:40.025Z,3.28
2022-10-28T11:14:29.404Z,1.65
2022-10-28T11:17:01.073Z,3.67
2022-10-28T11:19:37.805Z,2.85
2022-10-28T11:22:11.281Z,2.10
2022-10-28T11:27:34.709Z,2.38
2022-10-28T11:30:02.042Z,3.30
2022-10-28T11:32:28.515Z,3.47
2022-10-28T11:35:25.692Z,2.67
2022-10-28T11:38:24.654Z,2.95
2022-10-28T11:41:13.342Z,2.78
2022-10-28T11:43:54.394Z,3.20
2022-10-28T11:46:35.710Z,3.05
2022-10-28T11:49:30.027Z,3.13
2022-10-28T11:52:15.155Z,3.67
2022-10-28T11:55:09.346Z,4.18
2022-10-28T11:57:38.553Z,2.40
2022-10-28T12:00:32.330Z,2.17
2022-10-28T12:03:18.971Z,3.03
2022-10-28T12:05:58.751Z,3.03
2022-10-28T12:08:34.263Z,3.08
2022-10-28T12:11:18.705Z,2.55
2022-10-28T12:16:50.690Z,3.58
2022-10-28T12:19:39.914Z,2.00
2022-10-28T12:22:51.491Z,2.90
2022-10-28T12:25:23.979Z,3.13
2022-10-28T12:27:53.595Z,2.13
2022-10-28T12:30:24.014Z,3.00
2022-10-28T12:32:54.585Z,2.33
2022-10-28T12:35:28.228Z,2.72
2022-10-28T12:38:11.442Z,2.08
2022-10-28T12:40:59.931Z,2.40
2022-10-28T12:43:39.562Z,2.60
2022-10-28T12:46:19.320Z,3.40
2022-10-28T12:48:48.959Z,2.90
2022-10-28T12:51:29.218Z,3.15
2022-10-28T12:54:06.086Z,2.70
2022-10-28T12:56:42.081Z,3.30
2022-10-28T12:59:14.657Z,1.75
2022-10-28T13:01:44.084Z,2.50
2022-10-28T13:04:13.899Z,3.78
2022-10-28T13:06:52.418Z,2.20
2022-10-28T13:09:21.849Z,3.38
2022-10-28T13:12:13.006Z,2.83
2022-10-28T13:14:59.030Z,3.53
2022-10-28T13:17:28.187Z,2.42
2022-10-28T13:20:07.531Z,2.45
2022-10-28T13:23:00.268Z,2.35
2022-10-28T13:25:45.815Z,2.67
2022-10-28T13:28:17.890Z,3.63
2022-10-28T13:31:02.492Z,2.80
2022-10-28T13:33:30.602Z,3.95
2022-10-28T13:36:16.534Z,2.53
2022-10-28T13:38:43.628Z,3.13
2022-10-28T13:41:15.407Z,3.50
2022-10-28T13:43:51.003Z,3.92
2022-10-28T13:46:58.703Z,3.53
2022-10-28T13:49:29.513Z,4.05
2022-10-28T13:52:03.753Z,2.92
2022-10-28T13:54:53.034Z,3.33
2022-10-28T13:57:30.970Z,4.53
2022-10-28T14:00:00.556Z,3.72
2022-10-28T14:02:37.822Z,3.90
2022-10-28T14:05:09.901Z,2.55
2022-10-28T14:07:55.747Z,4.00
2022-10-28T14:10:24.325Z,3.70
2022-10-28T14:15:42.702Z,4.03
2022-10-28T14:18:41.664Z,3.53
2022-10-28T14:21:02.163Z,5.18
2022-10-28T14:23:28.850Z,3.95
2022-10-28T14:25:56.178Z,4.28
2022-10-28T14:28:31.552Z,5.05
2022-10-28T14:31:11.383Z,5.18
2022-10-28T14:33:46.695Z,4.88
2022-10-28T14:36:19.166Z,4.55
2022-10-28T14:39:04.248Z,5.17
2022-10-28T14:42:18.916Z,4.97
2022-10-28T14:45:17.478Z,5.25
2022-10-28T14:48:08.814Z,5.75
2022-10-28T14:50:44.140Z,6.18
2022-10-28T14:53:19.272Z,5.25
2022-10-28T14:55:47.784Z,6.72
2022-10-28T14:58:14.293Z,6.22
2022-10-28T15:01:00.618Z,5.40
2022-10-28T15:03:27.555Z,4.78
2022-10-28T15:05:54.121Z,5.38
2022-10-28T15:08:20.698Z,6.47
2022-10-28T15:10:49.022Z,7.13
2022-10-28T15:13:16.727Z,5.55
2022-10-28T15:15:52.805Z,5.03
2022-10-28T15:18:24.888Z,5.28
2022-10-28T15:21:08.565Z,9.40
2022-10-28T15:26:13.031Z,6.03
2022-10-28T15:28:40.273Z,4.85
2022-10-28T15:31:07.206Z,4.20
2022-10-28T15:33:36.390Z,4.97
2022-10-28T15:36:22.715Z,7.38
2022-10-28T15:39:16.200Z,8.45
2022-10-28T15:41:44.263Z,5.55
2022-10-28T15:44:31.695Z,7.25
2022-10-28T15:46:58.987Z,7.30
2022-10-28T15:49:37.452Z,6.80
2022-10-28T15:52:37.103Z,5.30
2022-10-28T15:55:41.539Z,5.15
2022-10-28T15:58:19.248Z,9.43
2022-10-28T16:00:52.950Z,6.75
2022-10-28T16:06:04.913Z,6.93
2022-10-28T16:08:32.395Z,7.05
2022-10-28T16:11:01.142Z,9.15
2022-10-28T16:13:48.331Z,6.18
2022-10-28T16:16:22.640Z,6.70
2022-10-28T16:18:51.419Z,6.45
2022-10-28T16:21:20.369Z,5.72
2022-10-28T16:23:48.971Z,5.43
2022-10-28T16:26:15.514Z,5.22
2022-10-28T16:28:45.222Z,6.82
2022-10-28T16:31:15.670Z,6.30
2022-10-28T16:33:42.276Z,6.90
2022-10-28T16:36:09.072Z,6.93
2022-10-28T16:38:35.851Z,7.05
2022-10-28T16:41:03.442Z,5.82
2022-10-28T16:43:30.873Z,6.50
2022-10-28T16:45:59.456Z,7.47
2022-10-28T16:48:28.003Z,6.43
2022-10-28T16:50:57.343Z,5.68
2022-10-28T16:53:24.020Z,6.72
2022-10-28T16:55:50.606Z,7.38
2022-10-28T16:58:21.822Z,7.10
2022-10-28T17:00:51.247Z,4.60
2022-10-28T17:03:17.809Z,5.85
2022-10-28T17:05:44.415Z,7.22
2022-10-28T17:08:11.607Z,6.30
2022-10-28T17:10:42.268Z,4.80
2022-10-28T17:13:15.780Z,7.40
2022-10-28T17:15:43.095Z,9.70
2022-10-28T17:18:11.363Z,5.75
2022-10-28T17:20:37.919Z,6.53
2022-10-28T17:23:05.055Z,9.00
2022-10-28T17:25:31.890Z,5.55
2022-10-28T17:27:58.706Z,8.32
2022-10-28T17:30:25.461Z,6.45
2022-10-28T17:32:53.722Z,6.65
2022-10-28T17:35:21.938Z,6.05
2022-10-28T17:37:48.622Z,6.22
2022-10-28T17:40:15.635Z,6.30
2022-10-28T17:42:42.195Z,6.28
2022-10-28T17:45:10.131Z,8.05
2022-10-28T17:47:36.660Z,5.45
2022-10-28T17:50:03.412Z,5.35
2022-10-28T17:52:32.987Z,7.47
2022-10-28T17:55:04.010Z,8.20
2022-10-28T17:57:30.653Z,8.93
2022-10-28T17:59:57.191Z,8.40
2022-10-28T18:02:23.836Z,8.45
2022-10-28T18:04:50.422Z,6.50
2022-10-28T18:07:16.988Z,8.95
2022-10-28T18:09:43.583Z,7.30
2022-10-28T18:12:12.463Z,6.82
2022-10-28T18:14:39.387Z,7.00
2022-10-28T18:17:05.964Z,7.82
2022-10-28T18:19:32.496Z,9.35
2022-10-28T18:21:59.038Z,6.45
2022-10-28T18:24:26.309Z,6.30
2022-10-28T18:26:54.265Z,5.70
2022-10-28T18:29:20.794Z,6.50
2022-10-28T18:31:47.326Z,5.65
2022-10-28T18:34:14.030Z,6.97
2022-10-28T18:36:40.649Z,8.13
2022-10-28T18:39:07.872Z,6.32
2022-10-28T18:41:38.063Z,5.30
2022-10-28T18:44:05.437Z,6.18
2022-10-28T18:46:35.596Z,8.00
2022-10-28T18:49:02.649Z,8.88
2022-10-28T18:51:29.555Z,6.93
2022-10-28T18:53:56.830Z,9.77
2022-10-28T18:56:25.506Z,7.32
2022-10-28T18:58:52.472Z,7.28
2022-10-28T19:01:21.530Z,7.68
2022-10-28T19:03:52.745Z,8.50
2022-10-28T19:06:19.597Z,6.80
2022-10-28T19:08:50.947Z,8.90
2022-10-28T19:11:17.499Z,9.10
2022-10-28T19:13:44.193Z,6.68
2022-10-28T19:18:42.387Z,8.48
2022-10-28T19:21:12.430Z,9.98
2022-10-28T19:23:39.534Z,6.82
2022-10-28T19:26:06.831Z,6.93
2022-10-28T19:28:51.758Z,6.38
2022-10-28T19:31:23.446Z,6.88
2022-10-28T19:33:51.854Z,7.68
2022-10-28T19:36:20.683Z,6.82
2022-10-28T19:38:48.146Z,6.40
2022-10-28T19:41:19.115Z,5.15
2022-10-28T19:43:45.823Z,6.55
2022-10-28T19:46:20.050Z,6.30
2022-10-28T19:48:48.575Z,6.72
2022-10-28T19:51:17.239Z,6.53
2022-10-28T19:53:55.182Z,6.20
2022-10-28T19:56:22.193Z,7.78
2022-10-28T19:58:53.308Z,7.18
2022-10-28T20:01:21.071Z,6.78
2022-10-28T20:03:49.896Z,7.10
2022-10-28T20:06:18.337Z,7.53
2022-10-28T20:08:49.494Z,6.70
2022-10-28T20:11:24.765Z,6.75
2022-10-28T20:13:54.401Z,6.75
2022-10-28T20:16:21.028Z,7.85
2022-10-28T20:18:47.606Z,8.23
2022-10-28T20:21:18.445Z,6.93
2022-10-28T20:23:47.598Z,6.78
2022-10-28T20:26:14.151Z,5.85
2022-10-28T20:28:40.731Z,6.65
2022-10-28T20:31:22.388Z,6.50
2022-10-28T20:33:57.715Z,8.43
2022-10-28T20:36:32.047Z,5.80
2022-10-28T20:39:00.494Z,6.35
2022-10-28T20:41:32.161Z,6.05
2022-10-28T20:43:58.976Z,6.68
2022-10-28T20:46:26.114Z,7.13
2022-10-28T20:48:54.336Z,5.57
2022-10-28T20:51:22.004Z,6.93
2022-10-28T20:53:48.619Z,5.45
2022-10-28T20:56:23.998Z,5.78
2022-10-28T20:58:51.191Z,6.25
2022-10-28T21:01:20.042Z,5.57
2022-10-28T21:03:48.919Z,5.82
2022-10-28T21:06:16.207Z,5.72
2022-10-28T21:08:43.142Z,4.78
2022-10-28T21:11:12.329Z,6.60
2022-10-28T21:13:39.338Z,6.13
2022-10-28T21:16:07.504Z,7.80
2022-10-28T21:18:35.576Z,4.95
2022-10-28T21:21:02.247Z,5.70
2022-10-28T21:23:29.345Z,5.63
2022-10-28T21:25:57.681Z,6.15
2022-10-28T21:28:24.344Z,6.72
2022-10-28T21:30:50.914Z,5.32
2022-10-28T21:33:20.546Z,6.68
2022-10-28T21:35:56.023Z,5.65
2022-10-28T21:38:22.584Z,6.05
2022-10-28T21:40:49.110Z,5.95
2022-10-28T21:43:16.471Z,6.55
2022-10-28T21:45:43.007Z,4.85
2022-10-28T21:48:09.586Z,6.50
2022-10-28T21:50:36.107Z,6.72
2022-10-28T21:53:04.082Z,5.88
2022-10-28T21:55:41.996Z,5.68
2022-10-28T21:58:13.122Z,6.18
2022-10-28T22:00:39.679Z,6.03
2022-10-28T22:03:06.269Z,5.10
2022-10-28T22:05:32.885Z,5.05
2022-10-28T22:08:01.924Z,4.20
2022-10-28T22:10:31.258Z,5.55
2022-10-28T22:12:57.802Z,5.50
2022-10-28T22:15:24.375Z,5.50
2022-10-28T22:17:50.920Z,4.30
2022-10-28T22:20:17.556Z,5.70
2022-10-28T22:22:44.192Z,4.05
2022-10-28T22:25:10.869Z,6.10
2022-10-28T22:27:37.805Z,3.92
2022-10-28T22:30:04.800Z,4.43
2022-10-28T22:32:31.331Z,4.80
2022-10-28T22:34:57.873Z,4.55
2022-10-28T22:37:24.413Z,3.35
2022-10-28T22:39:50.961Z,5.45
2022-10-28T22:42:17.488Z,5.05
2022-10-28T22:44:44.037Z,3.97
2022-10-28T22:47:10.574Z,4.60
2022-10-28T22:49:37.142Z,3.47
2022-10-28T22:52:03.711Z,4.68
2022-10-28T22:54:30.253Z,4.65
2022-10-28T22:56:56.795Z,4.82
2022-10-28T22:59:23.323Z,4.18
2022-10-28T23:01:49.912Z,4.55
2022-10-28T23:04:16.541Z,4.30
2022-10-28T23:06:43.075Z,3.90
2022-10-28T23:09:09.611Z,4.00
2022-10-28T23:11:36.711Z,4.25
2022-10-28T23:14:03.248Z,4.75
2022-10-28T23:16:29.811Z,3.65
2022-10-28T23:18:56.334Z,4.15
2022-10-28T23:21:24.981Z,3.13
2022-10-28T23:23:55.922Z,2.90
2022-10-28T23:26:23.239Z,2.90
2022-10-28T23:28:51.954Z,3.58
2022-10-28T23:31:18.922Z,3.65
2022-10-28T23:33:45.439Z,4.38
2022-10-28T23:36:13.229Z,3.10
2022-10-28T23:38:39.980Z,3.35
2022-10-28T23:41:08.636Z,3.28
2022-10-28T23:43:35.202Z,3.50
2022-10-28T23:46:02.018Z,3.78
2022-10-28T23:48:29.174Z,3.28
2022-10-28T23:50:56.263Z,3.22
2022-10-28T23:53:23.103Z,3.13
2022-10-28T23:55:50.542Z,3.20
2022-10-28T23:58:18.654Z,2.72
